createdAt,value
2023-02-14T00:00:22.571Z,100.00
2023-02-14T00:02:49.642Z,100.00
2023-02-14T00:05:17.842Z,100.00
2023-02-14T00:07:44.469Z,100.00
2023-02-14T00:10:11.262Z,100.00
2023-02-14T00:12:37.902Z,100.00
2023-02-14T00:15:05.607Z,100.00
2023-02-14T00:17:32.204Z,100.00
2023-02-14T00:19:58.715Z,99.95
2023-02-14T00:22:26.712Z,99.54
2023-02-14T00:24:53.238Z,100.00
2023-02-14T00:27:20.372Z,100.00
2023-02-14T00:29:46.981Z,100.00
2023-02-14T00:32:13.913Z,100.00
2023-02-14T00:34:40.728Z,100.00
2023-02-14T00:37:10.266Z,100.00
2023-02-14T00:39:38.385Z,100.00
2023-02-14T00:42:06.003Z,100.00
2023-02-14T00:44:32.849Z,100.00
2023-02-14T00:46:59.700Z,100.00
2023-02-14T00:49:26.277Z,100.00
2023-02-14T00:51:52.969Z,100.00
2023-02-14T00:54:19.878Z,100.00
2023-02-14T00:56:47.851Z,100.00
2023-02-14T00:59:14.463Z,100.00
2023-02-14T01:01:41.770Z,100.00
2023-02-14T01:04:09.632Z,100.00
2023-02-14T01:06:36.788Z,100.00
2023-02-14T01:09:03.838Z,100.00
2023-02-14T01:11:32.756Z,100.00
2023-02-14T01:14:01.526Z,100.00
2023-02-14T01:16:29.330Z,100.00
2023-02-14T01:18:58.372Z,100.00
2023-02-14T01:21:26.965Z,100.00
2023-02-14T01:23:58.027Z,100.00
2023-02-14T01:26:26.465Z,100.00
2023-02-14T01:28:53.431Z,100.00
2023-02-14T01:31:23.357Z,100.00
2023-02-14T01:33:50.939Z,100.00
2023-02-14T01:36:20.273Z,100.00
2023-02-14T01:38:47.292Z,100.00
2023-02-14T01:41:14.146Z,100.00
2023-02-14T01:43:56.913Z,100.00
2023-02-14T01:46:26.622Z,100.00
2023-02-14T01:48:56.538Z,100.00
2023-02-14T01:51:24.005Z,100.00
2023-02-14T01:53:52.171Z,100.00
2023-02-14T01:56:27.391Z,100.00
2023-02-14T01:58:59.052Z,100.00
2023-02-14T02:01:28.181Z,100.00
2023-02-14T02:03:57.387Z,100.00
2023-02-14T02:06:29.305Z,100.00
2023-02-14T02:09:00.492Z,100.00
2023-02-14T02:11:29.058Z,100.00
2023-02-14T02:13:55.882Z,100.00
2023-02-14T02:16:42.189Z,100.00
2023-02-14T02:19:47.195Z,100.00
2023-02-14T02:22:37.366Z,100.00
2023-02-14T02:25:18.864Z,100.00
2023-02-14T02:28:16.237Z,100.00
2023-02-14T02:31:18.293Z,100.00
2023-02-14T02:34:06.857Z,100.00
2023-02-14T02:36:58.650Z,100.00
2023-02-14T02:39:40.290Z,100.00
2023-02-14T02:42:17.565Z,100.00
2023-02-14T02:44:50.826Z,100.00
2023-02-14T02:47:26.576Z,100.00
2023-02-14T02:50:02.629Z,100.00
2023-02-14T02:52:39.712Z,100.00
2023-02-14T02:55:11.679Z,100.00
2023-02-14T02:57:42.457Z,100.00
2023-02-14T03:00:15.155Z,100.00
2023-02-14T03:02:46.658Z,100.00
2023-02-14T03:05:13.498Z,100.00
2023-02-14T03:07:41.430Z,100.00
2023-02-14T03:10:13.476Z,100.00
2023-02-14T03:13:05.440Z,100.00
2023-02-14T03:15:50.832Z,100.00
2023-02-14T03:18:32.195Z,100.00
2023-02-14T03:21:10.082Z,100.00
2023-02-14T03:23:48.719Z,100.00
2023-02-14T03:26:18.391Z,100.00
2023-02-14T03:28:52.958Z,100.00
2023-02-14T03:31:29.171Z,100.00
2023-02-14T03:34:00.981Z,100.00
2023-02-14T03:36:31.391Z,100.00
2023-02-14T03:39:05.797Z,100.00
2023-02-14T03:41:38.186Z,100.00
2023-02-14T03:44:08.044Z,100.00
2023-02-14T03:46:39.594Z,100.00
2023-02-14T03:49:11.438Z,100.00
2023-02-14T03:51:39.144Z,100.00
2023-02-14T03:54:10.443Z,100.00
2023-02-14T03:56:41.500Z,100.00
2023-02-14T03:59:13.573Z,100.00
2023-02-14T04:01:45.059Z,100.00
2023-02-14T04:04:16.656Z,100.00
2023-02-14T04:06:43.856Z,100.00
2023-02-14T04:09:12.189Z,100.00
2023-02-14T04:11:39.101Z,100.00
2023-02-14T04:14:06.050Z,100.00
2023-02-14T04:16:33.474Z,100.00
2023-02-14T04:19:00.176Z,100.00
2023-02-14T04:21:27.156Z,100.00
2023-02-14T04:23:53.718Z,100.00
2023-02-14T04:26:21.705Z,100.00
2023-02-14T04:28:48.263Z,100.00
2023-02-14T04:31:15.272Z,100.00
2023-02-14T04:33:41.963Z,100.00
2023-02-14T04:36:08.982Z,100.00
2023-02-14T04:38:35.517Z,100.00
2023-02-14T04:41:02.579Z,100.00
2023-02-14T04:43:30.673Z,100.00
2023-02-14T04:45:57.254Z,100.00
2023-02-14T04:48:23.840Z,100.00
2023-02-14T04:50:53.759Z,100.00
2023-02-14T04:53:20.507Z,100.00
2023-02-14T04:55:48.801Z,100.00
2023-02-14T04:58:16.153Z,100.00
2023-02-14T05:00:44.051Z,100.00
2023-02-14T05:03:10.693Z,100.00
2023-02-14T05:05:37.637Z,100.00
2023-02-14T05:08:04.307Z,100.00
2023-02-14T05:10:30.926Z,100.00
2023-02-14T05:12:57.452Z,100.00
2023-02-14T05:15:23.974Z,100.00
2023-02-14T05:17:52.123Z,100.00
2023-02-14T05:20:18.844Z,100.00
2023-02-14T05:22:45.411Z,100.00
2023-02-14T05:25:11.942Z,100.00
2023-02-14T05:27:38.777Z,100.00
2023-02-14T05:30:06.688Z,100.00
2023-02-14T05:32:33.346Z,100.00
2023-02-14T05:35:01.477Z,100.00
2023-02-14T05:37:28.875Z,100.00
2023-02-14T05:39:55.720Z,100.00
2023-02-14T05:42:22.343Z,100.00
2023-02-14T05:44:49.044Z,100.00
2023-02-14T05:47:15.586Z,100.00
2023-02-14T05:49:42.165Z,100.00
2023-02-14T05:52:10.107Z,100.00
2023-02-14T05:54:36.736Z,100.00
2023-02-14T05:57:03.637Z,100.00
2023-02-14T05:59:30.168Z,100.00
2023-02-14T06:01:57.012Z,100.00
2023-02-14T06:04:24.014Z,100.00
2023-02-14T06:06:50.568Z,100.00
2023-02-14T06:09:18.568Z,100.00
2023-02-14T06:11:45.149Z,100.00
2023-02-14T06:14:11.713Z,100.00
2023-02-14T06:16:38.389Z,100.00
2023-02-14T06:19:05.028Z,100.00
2023-02-14T06:21:31.626Z,100.00
2023-02-14T06:23:59.136Z,100.00
2023-02-14T06:26:27.380Z,100.00
2023-02-14T06:28:53.983Z,100.00
2023-02-14T06:31:20.706Z,100.00
2023-02-14T06:33:47.384Z,100.00
2023-02-14T06:36:14.060Z,100.00
2023-02-14T06:38:40.868Z,100.00
2023-02-14T06:41:09.345Z,100.00
2023-02-14T06:43:38.860Z,100.00
2023-02-14T06:46:05.690Z,100.00
2023-02-14T06:48:32.554Z,100.00
2023-02-14T06:51:00.852Z,100.00
2023-02-14T06:53:27.791Z,100.00
2023-02-14T06:55:54.598Z,100.00
2023-02-14T06:58:21.754Z,100.00
2023-02-14T07:00:49.896Z,100.00
2023-02-14T07:03:16.633Z,100.00
2023-02-14T07:05:43.518Z,100.00
2023-02-14T07:08:11.086Z,100.00
2023-02-14T07:10:37.798Z,100.00
2023-02-14T07:13:04.779Z,100.00
2023-02-14T07:15:31.564Z,100.00
2023-02-14T07:17:59.688Z,100.00
2023-02-14T07:20:26.368Z,100.00
2023-02-14T07:22:52.898Z,100.00
2023-02-14T07:25:19.847Z,100.00
2023-02-14T07:27:46.861Z,100.00
2023-02-14T07:30:14.094Z,100.00
2023-02-14T07:32:41.381Z,100.00
2023-02-14T07:35:10.088Z,100.00
2023-02-14T07:37:36.779Z,100.00
2023-02-14T07:40:05.333Z,100.00
2023-02-14T07:42:32.916Z,100.00
2023-02-14T07:45:04.848Z,100.00
2023-02-14T07:47:33.530Z,100.00
2023-02-14T07:50:00.221Z,100.00
2023-02-14T07:52:28.156Z,100.00
2023-02-14T07:54:54.672Z,100.00
2023-02-14T07:57:21.390Z,100.00
2023-02-14T07:59:47.908Z,100.00
2023-02-14T08:02:14.526Z,100.00
2023-02-14T08:04:41.195Z,100.00
2023-02-14T08:07:07.861Z,100.00
2023-02-14T08:09:35.786Z,100.00
2023-02-14T08:12:02.404Z,100.00
2023-02-14T08:14:29.432Z,100.00
2023-02-14T08:16:56.444Z,100.00
2023-02-14T08:19:22.993Z,100.00
2023-02-14T08:21:49.617Z,100.00
2023-02-14T08:24:16.190Z,100.00
2023-02-14T08:26:44.222Z,100.00
2023-02-14T08:29:10.743Z,100.00
2023-02-14T08:31:37.430Z,100.00
2023-02-14T08:34:04.551Z,100.00
2023-02-14T08:36:31.894Z,100.00
2023-02-14T08:38:58.814Z,100.00
2023-02-14T08:41:25.533Z,100.00
2023-02-14T08:43:53.556Z,100.00
2023-02-14T08:46:20.408Z,100.00
2023-02-14T08:48:47.035Z,100.00
2023-02-14T08:51:16.682Z,100.00
2023-02-14T08:53:44.107Z,100.00
2023-02-14T08:56:15.381Z,100.00
2023-02-14T08:58:42.239Z,100.00
2023-02-14T09:01:11.458Z,100.00
2023-02-14T09:03:38.666Z,100.00
2023-02-14T09:06:06.628Z,100.00
2023-02-14T09:08:33.498Z,100.00
2023-02-14T09:11:00.621Z,100.00
2023-02-14T09:13:27.445Z,100.00
2023-02-14T09:15:55.487Z,100.00
2023-02-14T09:18:23.579Z,100.00
2023-02-14T09:20:50.102Z,100.00
2023-02-14T09:23:17.140Z,100.00
2023-02-14T09:25:43.952Z,100.00
2023-02-14T09:28:10.851Z,100.00
2023-02-14T09:30:37.403Z,100.00
2023-02-14T09:33:04.089Z,100.00
2023-02-14T09:35:32.458Z,100.00
2023-02-14T09:37:59.210Z,100.00
2023-02-14T09:40:25.921Z,100.00
2023-02-14T09:43:02.293Z,100.00
2023-02-14T09:45:31.202Z,100.00
2023-02-14T09:48:02.312Z,100.00
2023-02-14T09:50:33.843Z,100.00
2023-02-14T09:53:05.884Z,100.00
2023-02-14T09:55:39.680Z,100.00
2023-02-14T09:58:15.154Z,99.83
2023-02-14T10:00:46.647Z,99.78
2023-02-14T10:03:41.562Z,99.89
2023-02-14T10:06:26.190Z,98.78
2023-02-14T10:09:02.679Z,96.76
2023-02-14T10:11:29.985Z,95.11
2023-02-14T10:14:02.111Z,95.70
2023-02-14T10:16:33.375Z,95.26
2023-02-14T10:19:03.827Z,90.92
2023-02-14T10:21:39.875Z,88.75
2023-02-14T10:24:13.797Z,87.86
2023-02-14T10:26:40.787Z,88.10
2023-02-14T10:29:12.758Z,88.12
2023-02-14T10:31:44.804Z,88.32
2023-02-14T10:34:20.604Z,88.35
2023-02-14T10:37:00.500Z,86.25
2023-02-14T10:39:42.970Z,85.90
2023-02-14T10:42:21.720Z,82.64
2023-02-14T10:44:56.194Z,80.39
2023-02-14T10:47:41.455Z,79.36
2023-02-14T10:50:16.664Z,79.69
2023-02-14T10:52:52.839Z,79.20
2023-02-14T10:55:32.397Z,79.43
2023-02-14T10:58:04.092Z,78.70
2023-02-14T11:00:34.136Z,78.58
2023-02-14T11:03:06.014Z,76.81
2023-02-14T11:05:35.542Z,75.40
2023-02-14T11:08:14.269Z,75.09
2023-02-14T11:10:40.994Z,72.91
2023-02-14T11:13:27.654Z,73.10
2023-02-14T11:15:59.670Z,72.48
2023-02-14T11:18:27.981Z,73.34
2023-02-14T11:21:02.663Z,72.38
2023-02-14T11:23:34.947Z,70.55
2023-02-14T11:26:02.983Z,71.58
2023-02-14T11:28:29.778Z,70.09
2023-02-14T11:30:56.595Z,68.94
2023-02-14T11:33:31.560Z,69.31
2023-02-14T11:35:59.608Z,69.95
2023-02-14T11:38:29.706Z,70.07
2023-02-14T11:40:59.361Z,68.34
2023-02-14T11:43:34.448Z,67.57
2023-02-14T11:46:08.000Z,67.59
2023-02-14T11:48:38.684Z,67.28
2023-02-14T11:51:08.070Z,67.67
2023-02-14T11:53:44.478Z,67.27
2023-02-14T11:56:14.065Z,66.12
2023-02-14T11:58:47.800Z,65.74
2023-02-14T12:01:23.281Z,65.65
2023-02-14T12:03:52.285Z,65.73
2023-02-14T12:06:24.783Z,64.79
2023-02-14T12:08:51.687Z,64.23
2023-02-14T12:11:21.905Z,64.10
2023-02-14T12:13:53.146Z,63.96
2023-02-14T12:16:24.130Z,64.41
2023-02-14T12:18:56.113Z,63.40
2023-02-14T12:21:47.204Z,63.76
2023-02-14T12:24:26.038Z,63.74
2023-02-14T12:27:02.174Z,63.00
2023-02-14T12:29:35.211Z,61.88
2023-02-14T12:32:11.818Z,62.17
2023-02-14T12:34:38.521Z,62.87
2023-02-14T12:37:17.172Z,62.42
2023-02-14T12:39:58.971Z,62.33
2023-02-14T12:42:41.987Z,61.78
2023-02-14T12:45:19.839Z,61.34
2023-02-14T12:47:58.231Z,60.99
2023-02-14T12:50:43.088Z,60.55
2023-02-14T12:53:45.416Z,60.90
2023-02-14T12:56:21.042Z,61.85
2023-02-14T12:58:58.503Z,59.45
2023-02-14T13:01:38.754Z,59.83
2023-02-14T13:04:56.526Z,60.00
2023-02-14T13:07:36.232Z,58.80
2023-02-14T13:10:13.819Z,60.15
2023-02-14T13:12:49.211Z,58.37
2023-02-14T13:15:27.393Z,59.73
2023-02-14T13:17:58.666Z,57.32
2023-02-14T13:20:39.544Z,57.61
2023-02-14T13:23:13.249Z,58.15
2023-02-14T13:25:42.326Z,58.87
2023-02-14T13:28:13.565Z,58.35
2023-02-14T13:30:41.610Z,57.63
2023-02-14T13:33:14.401Z,57.02
2023-02-14T13:35:41.746Z,57.34
2023-02-14T13:38:15.849Z,57.35
2023-02-14T13:40:43.009Z,57.53
2023-02-14T13:43:09.558Z,56.76
2023-02-14T13:45:55.653Z,56.54
2023-02-14T13:48:25.335Z,57.18
2023-02-14T13:50:55.018Z,59.84
2023-02-14T13:53:37.301Z,57.42
2023-02-14T13:56:06.104Z,56.86
2023-02-14T13:58:33.356Z,57.02
2023-02-14T14:01:29.169Z,57.57
2023-02-14T14:03:58.076Z,57.21
2023-02-14T14:06:24.636Z,57.30
2023-02-14T14:08:53.840Z,58.76
2023-02-14T14:11:57.160Z,58.10
2023-02-14T14:14:35.673Z,56.47
2023-02-14T14:17:18.553Z,56.20
2023-02-14T14:19:47.123Z,55.29
2023-02-14T14:22:14.997Z,56.65
2023-02-14T14:24:52.849Z,56.72
2023-02-14T14:27:22.669Z,55.85
2023-02-14T14:29:51.882Z,55.72
2023-02-14T14:32:24.865Z,56.43
2023-02-14T14:34:54.333Z,56.61
2023-02-14T14:37:23.081Z,58.03
2023-02-14T14:39:51.513Z,55.72
2023-02-14T14:42:19.002Z,55.60
2023-02-14T14:44:48.236Z,56.37
2023-02-14T14:47:17.332Z,55.91
2023-02-14T14:49:45.879Z,55.74
2023-02-14T14:52:32.907Z,55.58
2023-02-14T14:55:01.968Z,55.57
2023-02-14T14:57:28.978Z,56.92
2023-02-14T15:00:21.232Z,56.51
2023-02-14T15:02:59.363Z,57.29
2023-02-14T15:05:29.755Z,57.09
2023-02-14T15:07:56.358Z,56.98
2023-02-14T15:10:24.717Z,56.92
2023-02-14T15:12:53.124Z,57.65
2023-02-14T15:15:19.740Z,57.11
2023-02-14T15:17:46.875Z,56.43
2023-02-14T15:20:18.811Z,56.43
2023-02-14T15:22:49.840Z,57.80
2023-02-14T15:25:19.840Z,56.71
2023-02-14T15:27:47.492Z,57.16
2023-02-14T15:30:23.466Z,56.75
2023-02-14T15:32:51.855Z,56.92
2023-02-14T15:35:23.649Z,56.72
2023-02-14T15:37:51.994Z,57.99
2023-02-14T15:40:22.981Z,58.75
2023-02-14T15:42:52.056Z,58.36
2023-02-14T15:45:22.872Z,59.88
2023-02-14T15:47:52.031Z,60.22
2023-02-14T15:50:21.113Z,59.86
2023-02-14T15:52:48.687Z,59.87
2023-02-14T15:55:19.033Z,59.18
2023-02-14T15:57:52.329Z,59.13
2023-02-14T16:00:20.629Z,60.12
2023-02-14T16:02:52.975Z,60.52
2023-02-14T16:05:22.201Z,60.32
2023-02-14T16:08:00.090Z,61.01
2023-02-14T16:10:30.382Z,61.48
2023-02-14T16:13:00.570Z,61.41
2023-02-14T16:15:29.266Z,61.07
2023-02-14T16:17:55.946Z,61.66
2023-02-14T16:20:28.038Z,61.74
2023-02-14T16:23:17.309Z,64.05
2023-02-14T16:25:46.265Z,62.96
2023-02-14T16:28:13.981Z,63.86
2023-02-14T16:30:42.473Z,64.16
2023-02-14T16:33:14.472Z,64.27
2023-02-14T16:35:41.133Z,64.67
2023-02-14T16:38:13.354Z,65.47
2023-02-14T16:40:43.096Z,66.18
2023-02-14T16:43:13.980Z,65.96
2023-02-14T16:45:41.130Z,66.48
2023-02-14T16:48:09.449Z,66.77
2023-02-14T16:50:37.754Z,67.12
2023-02-14T16:53:04.766Z,68.33
2023-02-14T16:55:31.751Z,68.38
2023-02-14T16:58:00.772Z,68.69
2023-02-14T17:00:28.708Z,69.59
2023-02-14T17:02:55.821Z,68.97
2023-02-14T17:05:22.430Z,69.12
2023-02-14T17:07:48.982Z,69.27
2023-02-14T17:10:19.228Z,70.31
2023-02-14T17:12:48.284Z,71.06
2023-02-14T17:15:17.819Z,70.99
2023-02-14T17:17:47.792Z,71.62
2023-02-14T17:20:14.509Z,71.98
2023-02-14T17:22:41.317Z,72.20
2023-02-14T17:25:09.110Z,72.80
2023-02-14T17:27:35.621Z,72.76
2023-02-14T17:30:02.294Z,72.75
2023-02-14T17:32:28.948Z,73.68
2023-02-14T17:34:56.951Z,73.89
2023-02-14T17:37:23.465Z,74.28
2023-02-14T17:39:50.052Z,74.83
2023-02-14T17:42:16.585Z,74.91
2023-02-14T17:44:43.138Z,75.39
2023-02-14T17:47:09.693Z,75.27
2023-02-14T17:49:36.266Z,75.82
2023-02-14T17:52:04.470Z,76.33
2023-02-14T17:54:31.156Z,76.98
2023-02-14T17:56:57.695Z,76.83
2023-02-14T17:59:24.361Z,77.50
2023-02-14T18:04:17.526Z,77.50
2023-02-14T18:06:44.247Z,77.63
2023-02-14T18:09:12.140Z,77.73
2023-02-14T18:11:40.568Z,77.70
2023-02-14T18:14:07.072Z,78.34
2023-02-14T18:16:34.123Z,79.18
2023-02-14T18:19:02.811Z,80.01
2023-02-14T18:21:32.996Z,79.98
2023-02-14T18:23:59.698Z,80.52
2023-02-14T18:26:27.615Z,80.68
2023-02-14T18:28:54.218Z,80.83
2023-02-14T18:31:21.625Z,81.72
2023-02-14T18:33:50.165Z,82.20
2023-02-14T18:36:19.092Z,82.10
2023-02-14T18:38:47.680Z,82.84
2023-02-14T18:41:16.404Z,83.00
2023-02-14T18:43:44.615Z,83.60
2023-02-14T18:46:13.368Z,83.39
2023-02-14T18:48:40.526Z,83.92
2023-02-14T18:51:07.841Z,84.08
2023-02-14T18:53:34.812Z,83.99
2023-02-14T18:56:04.405Z,84.44
2023-02-14T18:58:31.009Z,84.30
2023-02-14T19:00:59.258Z,85.22
2023-02-14T19:03:26.030Z,84.65
2023-02-14T19:05:52.537Z,84.12
2023-02-14T19:08:19.161Z,84.98
2023-02-14T19:10:45.666Z,85.01
2023-02-14T19:13:12.261Z,86.23
2023-02-14T19:15:38.781Z,86.16
2023-02-14T19:18:07.344Z,85.78
2023-02-14T19:20:33.885Z,86.13
2023-02-14T19:23:00.797Z,85.90
2023-02-14T19:25:27.356Z,85.82
2023-02-14T19:27:54.549Z,85.99
2023-02-14T19:30:21.252Z,86.74
2023-02-14T19:32:48.047Z,86.23
2023-02-14T19:35:16.210Z,86.48
2023-02-14T19:37:42.837Z,86.37
2023-02-14T19:40:10.230Z,86.41
2023-02-14T19:42:36.888Z,86.79
2023-02-14T19:45:04.628Z,87.38
2023-02-14T19:47:46.192Z,87.24
2023-02-14T19:50:13.962Z,87.74
2023-02-14T19:52:41.818Z,87.81
2023-02-14T19:55:15.840Z,88.21
2023-02-14T19:57:44.513Z,88.26
2023-02-14T20:00:12.575Z,87.90
2023-02-14T20:02:39.775Z,88.49
2023-02-14T20:05:06.793Z,88.90
2023-02-14T20:07:33.476Z,88.80
2023-02-14T20:10:01.398Z,89.29
2023-02-14T20:12:28.189Z,89.48
2023-02-14T20:14:54.860Z,90.07
2023-02-14T20:17:21.535Z,90.45
2023-02-14T20:19:48.134Z,90.33
2023-02-14T20:22:14.717Z,90.59
2023-02-14T20:24:41.439Z,90.66
2023-02-14T20:27:09.606Z,90.98
2023-02-14T20:29:38.006Z,91.34
2023-02-14T20:32:05.395Z,91.18
2023-02-14T20:34:31.989Z,91.69
2023-02-14T20:36:58.853Z,92.07
2023-02-14T20:39:29.552Z,91.87
2023-02-14T20:41:56.183Z,92.55
2023-02-14T20:44:24.272Z,93.07
2023-02-14T20:46:52.444Z,93.14
2023-02-14T20:49:20.069Z,93.98
2023-02-14T20:51:47.493Z,93.66
2023-02-14T20:54:14.211Z,93.61
2023-02-14T20:56:40.834Z,93.91
2023-02-14T20:59:07.432Z,93.89
2023-02-14T21:01:36.217Z,94.14
2023-02-14T21:04:03.072Z,93.88
2023-02-14T21:06:31.568Z,94.77
2023-02-14T21:08:58.791Z,94.79
2023-02-14T21:11:26.542Z,95.29
2023-02-14T21:13:55.535Z,95.19
2023-02-14T21:16:22.427Z,94.91
2023-02-14T21:18:52.673Z,94.64
2023-02-14T21:21:22.043Z,95.31
2023-02-14T21:23:49.379Z,95.31
2023-02-14T21:26:16.160Z,94.84
2023-02-14T21:28:42.715Z,95.23
2023-02-14T21:31:13.197Z,94.94
2023-02-14T21:33:40.107Z,94.77
2023-02-14T21:36:10.010Z,95.54
2023-02-14T21:38:37.043Z,96.05
2023-02-14T21:41:05.563Z,96.24
2023-02-14T21:43:34.576Z,95.86
2023-02-14T21:46:03.412Z,95.81
2023-02-14T21:48:30.250Z,95.36
2023-02-14T21:50:56.857Z,96.21
2023-02-14T21:53:25.117Z,97.36
2023-02-14T21:55:51.651Z,97.98
2023-02-14T21:58:18.287Z,97.75
2023-02-14T22:00:44.966Z,96.93
2023-02-14T22:03:12.384Z,97.23
2023-02-14T22:05:39.744Z,97.36
2023-02-14T22:08:06.296Z,97.78
2023-02-14T22:10:34.196Z,97.52
2023-02-14T22:13:00.771Z,97.57
2023-02-14T22:15:27.288Z,97.81
2023-02-14T22:17:53.844Z,97.92
2023-02-14T22:20:20.425Z,98.61
2023-02-14T22:22:47.033Z,98.93
2023-02-14T22:25:13.666Z,98.71
2023-02-14T22:27:41.687Z,97.69
2023-02-14T22:30:08.805Z,98.48
2023-02-14T22:32:35.433Z,97.97
2023-02-14T22:35:01.987Z,98.67
2023-02-14T22:37:28.602Z,98.04
2023-02-14T22:39:55.145Z,98.95
2023-02-14T22:42:21.788Z,98.75
2023-02-14T22:44:49.774Z,98.83
2023-02-14T22:47:16.392Z,99.03
2023-02-14T22:49:42.952Z,98.41
2023-02-14T22:52:09.496Z,98.91
2023-02-14T22:54:36.042Z,98.62
2023-02-14T22:57:02.963Z,98.83
2023-02-14T22:59:30.514Z,99.00
2023-02-14T23:01:58.840Z,98.79
2023-02-14T23:04:26.572Z,99.30
2023-02-14T23:06:53.673Z,99.41
2023-02-14T23:09:20.665Z,99.87
2023-02-14T23:11:49.045Z,99.67
2023-02-14T23:14:18.159Z,100.00
2023-02-14T23:16:45.792Z,98.84
2023-02-14T23:19:15.529Z,99.86
2023-02-14T23:21:42.151Z,99.67
2023-02-14T23:24:08.653Z,99.23
2023-02-14T23:26:37.298Z,99.36
2023-02-14T23:29:03.913Z,99.84
2023-02-14T23:31:30.711Z,100.00
2023-02-14T23:33:57.316Z,100.00
2023-02-14T23:36:25.324Z,100.00
2023-02-14T23:38:51.884Z,100.00
2023-02-14T23:41:18.496Z,99.86
2023-02-14T23:43:45.013Z,100.00
2023-02-14T23:46:11.591Z,100.00
2023-02-14T23:48:38.255Z,100.00
2023-02-14T23:51:04.901Z,100.00
2023-02-14T23:53:32.990Z,100.00
2023-02-14T23:56:03.258Z,99.93
2023-02-14T23:58:29.882Z,99.48
